This is the latest recevied weather packets stored in our database for station/object AA4XD. If no packets are shown the sender has not sent any weather packets the latest 10 day(s).
| Time | Temp. | Humidity | Pressure | Rain* | Wind** | Luminosity | Snow |
|---|---|---|---|---|---|---|---|
| 1777483366 | 31.11° C | 54% | 1014.5 hPa | 0 mm | - | 238 W/m² | - |
| 1777483061 | 32.22° C | 51% | 1014.4 hPa | 0 mm | - | 998 W/m² | - |
| 1777482758 | 32.22° C | 52% | 1014.5 hPa | 0 mm | - | 1036 W/m² | - |
| 1777482454 | 32.78° C | 50% | 1014.5 hPa | 0 mm | - | 198 W/m² | - |
| 1777482152 | 32.78° C | 50% | 1014.6 hPa | 0 mm | - | 1017 W/m² | - |
| 1777481849 | 32.22° C | 52% | 1014.6 hPa | 0 mm | - | 1011 W/m² | - |
| 1777481546 | 32.22° C | 51% | 1014.7 hPa | 0 mm | - | 1059 W/m² | - |
| 1777481243 | 32.22° C | 51% | 1014.9 hPa | 0 mm | - | 511 W/m² | - |
| 1777480940 | 32.22° C | 52% | 1014.8 hPa | 0 mm | - | 1013 W/m² | - |
| 1777480636 | 31.67° C | 55% | 1014.9 hPa | 0 mm | - | 1014 W/m² | - |
| 1777480333 | 31.11° C | 56% | 1015.2 hPa | 0 mm | - | 1021 W/m² | - |
| 1777480029 | 30.56° C | 57% | 1015.1 hPa | 0 mm | - | 954 W/m² | - |
| 1777479726 | 30.56° C | 56% | 1015.1 hPa | 0 mm | - | 780 W/m² | - |
| 1777479424 | 30.56° C | 56% | 1015.3 hPa | 0 mm | - | 626 W/m² | - |
| 1777479120 | 30.56° C | 56% | 1015.5 hPa | 0 mm | - | 828 W/m² | - |
| 1777478817 | 30.56° C | 57% | 1015.3 hPa | 0 mm | - | 605 W/m² | - |
| 1777478513 | 30° C | 58% | 1015.5 hPa | 0 mm | - | 430 W/m² | - |
| 1777478210 | 30° C | 57% | 1015.4 hPa | 0 mm | - | 457 W/m² | - |
| 1777477907 | 30.56° C | 57% | 1015.4 hPa | 0 mm | - | 595 W/m² | - |
| 1777477602 | 30.56° C | 57% | 1015.6 hPa | 0 mm | - | 860 W/m² | - |
| 1777477298 | 30° C | 59% | 1015.5 hPa | 0 mm | - | 744 W/m² | - |
| 1777476995 | 30° C | 59% | 1015.6 hPa | 0 mm | - | 992 W/m² | - |
| 1777476693 | 30° C | 60% | 1015.6 hPa | 0 mm | - | 909 W/m² | - |
| 1777476389 | 30.56° C | 59% | 1015.9 hPa | 0 mm | - | 861 W/m² | - |
| 1777476087 | 30° C | 62% | 1015.7 hPa | 0 mm | - | 842 W/m² | - |
* Rain latest hour (hover to see other rain measurements)
** Current wind speed in m/s (hover to see current wind gust speed)